Time;durP1;ratioP1;P1;durP2;ratioP2;P2;SDS_P1;SDS_P2;PMS_P1;PMS_P2;Temp;Humidity;BMP_temperature;BMP_pressure;BME280_temperature;BME280_humidity;BME280_pressure;Samples;Min_cycle;Max_cycle;Signal;HPM_P1;HPM_P2
2022/03/22 00:00:10;;;;;;;51.00;32.30;;;5.10;99.90;;;;;;6203602;23;20029;-35
2022/03/22 00:02:36;;;;;;;53.90;32.33;;;5.10;99.90;;;;;;6203135;23;20091;-35
2022/03/22 00:05:03;;;;;;;50.60;33.47;;;5.10;99.90;;;;;;6204969;23;20020;-35
2022/03/22 00:07:29;;;;;;;52.20;34.20;;;5.10;99.90;;;;;;6183383;23;20516;-35
2022/03/22 00:09:55;;;;;;;48.93;32.23;;;5.10;99.90;;;;;;6205261;23;20024;-35
2022/03/22 00:12:21;;;;;;;48.43;31.70;;;5.10;99.90;;;;;;6204250;23;20013;-36
2022/03/22 00:14:46;;;;;;;49.87;33.27;;;5.10;99.90;;;;;;6205120;23;20353;-35
2022/03/22 00:17:12;;;;;;;55.60;31.60;;;5.00;99.90;;;;;;6185555;23;20747;-37
2022/03/22 00:19:38;;;;;;;50.03;31.63;;;5.00;99.90;;;;;;6206488;23;20075;-33
2022/03/22 00:22:04;;;;;;;55.23;33.80;;;5.00;99.90;;;;;;6205387;23;20118;-36
2022/03/22 00:24:30;;;;;;;53.47;33.63;;;4.90;99.90;;;;;;6205487;23;20021;-32
2022/03/22 00:26:56;;;;;;;54.33;34.70;;;4.90;99.90;;;;;;6185709;23;20024;-36
2022/03/22 00:29:22;;;;;;;49.10;31.53;;;4.90;99.90;;;;;;6205172;23;20028;-35
2022/03/22 00:31:48;;;;;;;49.57;32.30;;;4.90;99.90;;;;;;6205135;23;20031;-36
2022/03/22 00:34:14;;;;;;;53.43;35.17;;;4.90;99.90;;;;;;6204980;23;20025;-36
2022/03/22 00:36:45;;;;;;;50.67;34.30;;;4.90;99.90;;;;;;6190636;23;20479;-37
2022/03/22 00:39:11;;;;;;;55.10;34.33;;;4.90;99.90;;;;;;6206224;23;20095;-32
2022/03/22 00:41:37;;;;;;;52.50;34.50;;;4.80;99.90;;;;;;6207225;23;20051;-36
2022/03/22 00:44:03;;;;;;;54.37;35.67;;;4.80;99.90;;;;;;6203651;23;20032;-34
2022/03/22 00:46:29;;;;;;;52.83;33.77;;;4.80;99.90;;;;;;6164642;23;20557;-35
2022/03/22 00:48:55;;;;;;;54.73;35.87;;;4.80;99.90;;;;;;6203626;23;20121;-33
2022/03/22 00:51:23;;;;;;;58.33;35.40;;;4.80;99.90;;;;;;6206926;23;20086;-36
2022/03/22 00:53:50;;;;;;;51.20;35.00;;;4.70;99.90;;;;;;6203614;23;20064;-34
2022/03/22 00:56:17;;;;;;;54.80;36.30;;;4.70;99.90;;;;;;6194137;23;20144;-37
2022/03/22 00:58:43;;;;;;;53.93;35.73;;;4.70;99.90;;;;;;6200937;23;20332;-36
2022/03/22 01:01:09;;;;;;;57.80;35.83;;;4.70;99.90;;;;;;6206802;23;20034;-35
2022/03/22 01:03:35;;;;;;;54.37;35.57;;;4.70;99.90;;;;;;6206268;23;20123;-36
2022/03/22 01:06:01;;;;;;;53.20;34.30;;;4.70;99.90;;;;;;6203633;23;20347;-35
2022/03/22 01:08:31;;;;;;;56.67;35.83;;;4.70;99.90;;;;;;6186522;23;20070;-35
2022/03/22 01:10:56;;;;;;;53.90;34.37;;;4.70;99.90;;;;;;6206274;23;20044;-32
2022/03/22 01:13:27;;;;;;;57.83;34.67;;;4.70;99.90;;;;;;6206565;23;20023;-34
2022/03/22 01:15:53;;;;;;;51.33;35.03;;;4.60;99.90;;;;;;6206291;23;20444;-37
2022/03/22 01:18:19;;;;;;;53.37;35.73;;;4.60;99.90;;;;;;6185335;23;20107;-36
2022/03/22 01:20:51;;;;;;;52.67;34.93;;;4.60;99.90;;;;;;6204921;23;20023;-31
2022/03/22 01:23:21;;;;;;;52.43;33.77;;;4.60;99.90;;;;;;6205743;23;20531;-33
2022/03/22 01:25:48;;;;;;;56.70;34.73;;;4.50;99.90;;;;;;6204575;23;20091;-35
2022/03/22 01:28:14;;;;;;;53.43;35.37;;;4.60;99.90;;;;;;6187384;23;20051;-35
2022/03/22 01:30:40;;;;;;;53.40;35.13;;;4.50;99.90;;;;;;6205819;23;20687;-35
2022/03/22 01:33:08;;;;;;;56.47;37.37;;;4.50;99.90;;;;;;6206345;23;20100;-33
2022/03/22 01:35:34;;;;;;;56.60;36.00;;;4.50;99.90;;;;;;6203795;23;20035;-34
2022/03/22 01:38:00;;;;;;;56.93;37.23;;;4.50;99.90;;;;;;6187518;23;20333;-36
2022/03/22 01:40:27;;;;;;;56.80;35.70;;;4.50;99.90;;;;;;6204094;23;20024;-35
2022/03/22 01:42:54;;;;;;;51.83;34.40;;;4.40;99.90;;;;;;6206528;23;20017;-34
2022/03/22 01:45:20;;;;;;;53.03;34.63;;;4.40;99.90;;;;;;6206298;23;20368;-35
2022/03/22 01:47:47;;;;;;;57.43;36.63;;;4.40;99.90;;;;;;6187187;23;20031;-36
2022/03/22 01:50:15;;;;;;;56.53;36.23;;;4.40;99.90;;;;;;6206029;23;20436;-36
2022/03/22 01:52:43;;;;;;;53.40;35.30;;;4.30;99.90;;;;;;6205901;23;20016;-36
2022/03/22 01:55:11;;;;;;;59.77;37.63;;;4.30;99.90;;;;;;6205999;23;20024;-36
2022/03/22 01:57:37;;;;;;;54.70;35.33;;;4.30;99.90;;;;;;6187162;23;20512;-35
2022/03/22 02:00:06;;;;;;;51.10;34.90;;;4.30;99.90;;;;;;6206042;23;20135;-35
2022/03/22 02:08:08;;;;;;;55.10;34.53;;;4.20;99.90;;;;;;6186214;23;20101;-34
2022/03/22 02:10:34;;;;;;;56.25;36.53;;;4.20;99.90;;;;;;6203840;23;20554;-33
2022/03/22 02:13:00;;;;;;;56.50;37.53;;;4.10;99.90;;;;;;6205926;23;20070;-35
2022/03/22 02:15:26;;;;;;;54.23;36.73;;;4.10;99.90;;;;;;6206251;23;20027;-34
2022/03/22 02:17:52;;;;;;;56.37;36.10;;;4.10;99.90;;;;;;6186473;23;20028;-35
2022/03/22 02:20:18;;;;;;;57.00;37.03;;;4.10;99.90;;;;;;6205342;23;20392;-33
2022/03/22 02:22:51;;;;;;;55.30;36.57;;;4.10;99.90;;;;;;6206371;23;20099;-33
2022/03/22 02:25:18;;;;;;;53.10;35.13;;;4.00;99.90;;;;;;6205497;23;20020;-33
2022/03/22 02:27:45;;;;;;;56.60;35.77;;;4.10;99.90;;;;;;6187659;23;20031;-36
2022/03/22 02:30:12;;;;;;;57.43;36.97;;;4.10;99.90;;;;;;6205527;23;20020;-33
2022/03/22 02:32:38;;;;;;;54.67;35.97;;;4.00;99.90;;;;;;6204930;23;20024;-33
2022/03/22 02:35:05;;;;;;;55.07;34.80;;;4.00;99.90;;;;;;6204876;23;20036;-35
2022/03/22 02:37:31;;;;;;;52.43;35.30;;;4.00;99.90;;;;;;6186959;23;20048;-34
2022/03/22 02:39:58;;;;;;;51.90;35.13;;;4.00;99.90;;;;;;6206279;23;20020;-36
2022/03/22 02:42:23;;;;;;;53.73;34.03;;;3.90;99.90;;;;;;6202891;23;20472;-35
2022/03/22 02:44:49;;;;;;;56.27;36.00;;;3.90;99.90;;;;;;6206074;23;20145;-33
2022/03/22 02:47:15;;;;;;;59.53;37.63;;;3.90;99.90;;;;;;6186012;23;20027;-34
2022/03/22 02:49:40;;;;;;;58.03;37.43;;;3.90;99.90;;;;;;6204673;23;20023;-34
2022/03/22 02:52:06;;;;;;;57.57;37.87;;;3.90;99.90;;;;;;6204734;23;20254;-34
2022/03/22 02:54:32;;;;;;;58.43;37.23;;;3.90;99.90;;;;;;6206707;23;20017;-34
2022/03/22 02:56:58;;;;;;;62.37;38.57;;;3.90;99.90;;;;;;6184720;23;20059;-35
2022/03/22 02:59:23;;;;;;;64.70;40.13;;;4.00;99.90;;;;;;6204850;23;20031;-34
2022/03/22 03:01:49;;;;;;;61.27;39.07;;;3.90;99.90;;;;;;6206182;23;20347;-33
2022/03/22 03:04:15;;;;;;;56.93;37.17;;;3.90;99.90;;;;;;6153158;23;20053;-33
2022/03/22 03:06:41;;;;;;;62.10;39.57;;;3.90;99.90;;;;;;6187414;23;20495;-33
2022/03/22 03:09:06;;;;;;;67.67;38.63;;;3.90;99.90;;;;;;6200055;23;20028;-34
2022/03/22 03:11:32;;;;;;;60.50;38.23;;;3.90;99.90;;;;;;6204705;23;20023;-32
2022/03/22 03:16:43;;;;;;;56.50;37.30;;;3.90;99.90;;;;;;6189528;23;20032;-34
2022/03/22 03:19:08;;;;;;;62.40;37.50;;;3.90;99.90;;;;;;6202585;23;20406;-35
2022/03/22 03:21:34;;;;;;;54.87;37.33;;;3.90;99.90;;;;;;6206267;23;20020;-34
2022/03/22 03:24:00;;;;;;;54.33;35.77;;;3.90;99.90;;;;;;6202142;23;20112;-35
2022/03/22 03:26:26;;;;;;;56.40;37.63;;;3.80;99.90;;;;;;6188754;23;20454;-35
2022/03/22 03:28:52;;;;;;;64.83;39.37;;;3.80;99.90;;;;;;6200882;23;20052;-34
2022/03/22 03:31:18;;;;;;;58.53;38.60;;;3.90;99.90;;;;;;6178752;23;20047;-35
2022/03/22 03:33:43;;;;;;;62.97;37.70;;;3.80;99.90;;;;;;6202479;23;20039;-34
2022/03/22 03:36:09;;;;;;;61.93;38.93;;;3.80;99.90;;;;;;6196566;23;20347;-36
2022/03/22 03:38:41;;;;;;;57.57;38.33;;;3.80;99.90;;;;;;6195302;23;20020;-34
2022/03/22 03:43:56;;;;;;;58.70;37.20;;;3.80;99.90;;;;;;6205091;23;20067;-33
2022/03/22 03:49:07;;;;;;;61.37;38.60;;;3.70;99.90;;;;;;6202313;23;20055;-33
2022/03/22 03:51:38;;;;;;;66.83;39.83;;;3.70;99.90;;;;;;6205913;23;20031;-35
2022/03/22 03:54:04;;;;;;;58.67;37.60;;;3.70;99.90;;;;;;6203872;23;20400;-34
2022/03/22 03:56:30;;;;;;;57.33;38.70;;;3.70;99.90;;;;;;6189143;23;20020;-34
2022/03/22 03:58:57;;;;;;;60.27;38.33;;;3.70;99.90;;;;;;6201639;23;20403;-34
2022/03/22 04:01:25;;;;;;;62.47;38.53;;;3.70;99.90;;;;;;6204194;23;20679;-35
2022/03/22 04:03:50;;;;;;;60.57;38.57;;;3.70;99.90;;;;;;6204001;23;20039;-33
2022/03/22 04:06:16;;;;;;;59.80;38.37;;;3.70;99.90;;;;;;6194053;23;20013;-32
2022/03/22 04:08:42;;;;;;;62.47;38.53;;;3.70;99.90;;;;;;6172008;23;20035;-34
2022/03/22 04:11:08;;;;;;;58.77;39.10;;;3.70;99.90;;;;;;6205369;23;20028;-34
2022/03/22 04:13:35;;;;;;;61.87;38.33;;;3.70;99.90;;;;;;6204456;23;20020;-34
2022/03/22 04:16:01;;;;;;;60.30;37.87;;;3.70;99.90;;;;;;6205052;23;20047;-34
2022/03/22 04:18:26;;;;;;;63.83;40.67;;;3.70;99.90;;;;;;6185942;23;20084;-35
2022/03/22 04:20:52;;;;;;;58.67;39.43;;;3.70;99.90;;;;;;6203218;23;20086;-32
2022/03/22 04:23:18;;;;;;;68.73;42.67;;;3.70;99.90;;;;;;6204685;23;20020;-34
2022/03/22 04:25:44;;;;;;;64.20;40.77;;;3.70;99.90;;;;;;6204130;23;20472;-32
2022/03/22 04:33:38;;;;;;;69.60;43.30;;;3.80;99.90;;;;;;6203888;23;20112;-33
2022/03/22 04:36:05;;;;;;;65.83;42.27;;;3.80;99.90;;;;;;6204611;23;20045;-32
2022/03/22 04:38:30;;;;;;;68.23;41.97;;;3.90;99.90;;;;;;6186407;23;20460;-33
2022/03/22 04:40:57;;;;;;;69.27;43.57;;;3.90;99.90;;;;;;6204939;23;20021;-35
2022/03/22 04:43:23;;;;;;;69.33;43.07;;;3.90;99.90;;;;;;6205262;23;20559;-35
2022/03/22 04:45:48;;;;;;;67.47;43.20;;;3.90;99.90;;;;;;6202908;23;20060;-32
2022/03/22 04:48:14;;;;;;;71.57;44.10;;;3.90;99.90;;;;;;6186165;23;20032;-35
2022/03/22 04:50:40;;;;;;;69.93;42.93;;;4.00;99.90;;;;;;6205071;23;20159;-35
2022/03/22 04:56:43;;;;;;;69.23;44.00;;;4.10;99.90;;;;;;6205571;23;20063;-35
2022/03/22 04:58:36;;;;;;;69.27;43.10;;;4.00;99.90;;;;;;6192864;23;20082;-33
2022/03/22 05:01:03;;;;;;;65.00;43.73;;;4.00;99.90;;;;;;6203281;23;20104;-32
2022/03/22 05:03:29;;;;;;;73.77;44.73;;;4.10;99.90;;;;;;6203737;23;20032;-36
2022/03/22 05:08:39;;;;;;;76.63;48.13;;;4.10;99.90;;;;;;6198438;23;20031;-37
2022/03/22 05:11:05;;;;;;;74.17;45.53;;;4.20;99.90;;;;;;6206918;23;20017;-36
2022/03/22 05:13:31;;;;;;;75.80;45.63;;;4.20;99.90;;;;;;6204125;23;20364;-34
2022/03/22 05:15:57;;;;;;;67.03;42.57;;;4.20;99.90;;;;;;6206911;23;20025;-34
2022/03/22 05:18:23;;;;;;;66.80;42.13;;;4.20;99.90;;;;;;6185496;23;20029;-32
2022/03/22 05:20:48;;;;;;;65.10;42.37;;;4.20;99.90;;;;;;6206413;23;20476;-34
2022/03/22 05:23:17;;;;;;;65.50;43.20;;;4.20;99.90;;;;;;6206114;23;20458;-35
2022/03/22 05:25:43;;;;;;;67.07;42.87;;;4.20;99.90;;;;;;6206364;23;20306;-33
2022/03/22 05:28:09;;;;;;;68.20;44.90;;;4.20;99.90;;;;;;6185089;23;20114;-35
2022/03/22 05:30:35;;;;;;;75.37;44.70;;;4.20;99.90;;;;;;6206596;23;20028;-34
2022/03/22 05:33:00;;;;;;;64.27;43.47;;;4.20;99.90;;;;;;6203255;23;20048;-32
2022/03/22 05:35:27;;;;;;;67.47;42.43;;;4.20;99.90;;;;;;6204687;23;20031;-34
2022/03/22 05:37:52;;;;;;;64.37;42.80;;;4.20;99.90;;;;;;6185360;23;20479;-34
2022/03/22 05:40:19;;;;;;;67.57;42.73;;;4.20;99.90;;;;;;6206305;23;20024;-35
2022/03/22 05:42:45;;;;;;;71.40;44.23;;;4.20;99.90;;;;;;6205264;23;20019;-31
2022/03/22 05:45:12;;;;;;;68.23;43.37;;;4.20;99.90;;;;;;6206325;23;20020;-31
2022/03/22 05:47:39;;;;;;;58.40;37.00;;;4.20;99.90;;;;;;6187454;23;20025;-33
2022/03/22 05:50:05;;;;;;;63.47;41.03;;;4.10;99.90;;;;;;6204265;23;20024;-31
2022/03/22 05:52:32;;;;;;;63.40;40.93;;;4.10;99.90;;;;;;6204222;23;20774;-34
2022/03/22 05:54:57;;;;;;;61.60;39.43;;;4.10;99.90;;;;;;6204880;23;20024;-35
2022/03/22 05:57:23;;;;;;;64.10;42.20;;;4.10;99.90;;;;;;6187139;23;20025;-32
2022/03/22 05:59:49;;;;;;;65.70;42.20;;;4.10;99.90;;;;;;6204300;23;20261;-34
2022/03/22 06:02:15;;;;;;;65.13;41.33;;;4.10;99.90;;;;;;6204345;23;20044;-35
2022/03/22 06:04:41;;;;;;;64.03;40.63;;;4.10;99.90;;;;;;6207190;23;20020;-34
2022/03/22 06:07:07;;;;;;;67.83;42.20;;;4.00;99.90;;;;;;6185328;23;20086;-33
2022/03/22 06:09:33;;;;;;;68.33;42.73;;;4.00;99.90;;;;;;6206722;23;20048;-35
2022/03/22 06:11:58;;;;;;;70.13;43.67;;;4.10;99.90;;;;;;6203178;23;20035;-32
2022/03/22 06:14:24;;;;;;;71.03;42.67;;;4.10;99.90;;;;;;6205955;23;20099;-32
2022/03/22 06:16:50;;;;;;;68.57;44.20;;;4.10;99.90;;;;;;6186929;23;20035;-35
2022/03/22 06:19:15;;;;;;;68.87;44.37;;;4.20;99.90;;;;;;6204521;23;20035;-34
2022/03/22 06:21:41;;;;;;;66.73;42.60;;;4.20;99.90;;;;;;6206660;23;20453;-32
2022/03/22 06:24:07;;;;;;;65.80;43.60;;;4.30;99.90;;;;;;6202716;23;20024;-34
2022/03/22 06:26:33;;;;;;;70.70;44.63;;;4.30;99.90;;;;;;6187362;23;20020;-32
2022/03/22 06:29:00;;;;;;;73.13;44.50;;;4.30;99.90;;;;;;6202604;23;20079;-35
2022/03/22 06:31:27;;;;;;;65.30;42.63;;;4.40;99.90;;;;;;6204897;23;20340;-35
2022/03/22 06:33:53;;;;;;;66.73;41.57;;;4.40;99.90;;;;;;6204977;23;20418;-34
2022/03/22 06:36:19;;;;;;;65.23;42.13;;;4.40;99.90;;;;;;6190309;23;20131;-32
2022/03/22 06:38:44;;;;;;;76.30;44.47;;;4.40;99.90;;;;;;6198018;23;20360;-32
2022/03/22 06:41:10;;;;;;;68.10;42.50;;;4.50;99.90;;;;;;6206062;23;20471;-34
2022/03/22 06:43:36;;;;;;;68.23;44.03;;;4.50;99.90;;;;;;6204948;23;20036;-35
2022/03/22 06:46:02;;;;;;;70.00;43.73;;;4.50;99.90;;;;;;6204219;23;20020;-35
2022/03/22 06:48:27;;;;;;;66.93;43.47;;;4.50;99.90;;;;;;6186590;23;20099;-33
2022/03/22 06:50:53;;;;;;;72.33;43.83;;;4.60;99.90;;;;;;6205645;23;20452;-35
2022/03/22 06:53:19;;;;;;;67.90;43.23;;;4.60;99.90;;;;;;6203225;23;20037;-34
2022/03/22 06:55:46;;;;;;;68.83;44.70;;;4.70;99.90;;;;;;6203763;23;20452;-32
2022/03/22 06:58:12;;;;;;;69.83;43.53;;;4.70;99.90;;;;;;6186818;23;20048;-33
2022/03/22 07:00:37;;;;;;;68.20;43.97;;;4.70;99.90;;;;;;6205936;23;20435;-35
2022/03/22 07:03:05;;;;;;;66.33;42.33;;;4.70;99.90;;;;;;6204611;23;20025;-35
2022/03/22 07:05:31;;;;;;;65.87;42.97;;;4.80;99.90;;;;;;6205839;23;20021;-36
2022/03/22 07:07:57;;;;;;;65.23;42.00;;;4.80;99.90;;;;;;6158425;23;20021;-32
2022/03/22 07:10:23;;;;;;;68.50;43.23;;;4.90;99.90;;;;;;6203782;23;20479;-33
2022/03/22 07:12:57;;;;;;;65.07;43.53;;;4.90;99.90;;;;;;6203582;23;20020;-36
2022/03/22 07:15:27;;;;;;;66.83;43.03;;;5.00;99.90;;;;;;6205228;23;20016;-31
2022/03/22 07:17:54;;;;;;;66.37;41.37;;;5.00;99.90;;;;;;6185730;23;20020;-37
2022/03/22 07:20:23;;;;;;;62.70;41.40;;;5.00;99.90;;;;;;6202909;23;20070;-36
2022/03/22 07:22:49;;;;;;;72.47;44.73;;;5.10;99.90;;;;;;6201031;23;20315;-33
2022/03/22 07:25:16;;;;;;;70.07;44.20;;;5.20;99.90;;;;;;6203763;23;20024;-35
2022/03/22 07:27:42;;;;;;;69.37;42.53;;;5.20;99.90;;;;;;6186714;23;20012;-36
2022/03/22 07:30:10;;;;;;;69.30;44.00;;;5.30;99.90;;;;;;6204537;23;20070;-35
2022/03/22 07:32:37;;;;;;;70.80;44.37;;;5.30;99.90;;;;;;6205419;23;20067;-33
2022/03/22 07:35:05;;;;;;;63.37;42.87;;;5.40;99.90;;;;;;6202676;23;20031;-36
2022/03/22 07:37:30;;;;;;;69.63;43.67;;;5.50;99.90;;;;;;6186388;23;20021;-35
2022/03/22 07:39:57;;;;;;;68.90;43.77;;;5.60;99.90;;;;;;6204969;23;20013;-37
2022/03/22 07:42:28;;;;;;;68.77;44.13;;;5.70;99.90;;;;;;6204237;23;20091;-36
2022/03/22 07:44:59;;;;;;;71.28;44.78;;;5.80;99.90;;;;;;6203260;23;20116;-36
2022/03/22 07:47:24;;;;;;;51.85;34.03;;;5.90;99.90;;;;;;6185245;23;20071;-34
2022/03/22 07:55:21;;;;;;;63.47;42.40;;;6.10;99.90;;;;;;6204433;23;20027;-36
2022/03/22 07:57:47;;;;;;;63.43;42.10;;;6.20;99.90;;;;;;6183896;23;20047;-33
2022/03/22 08:00:13;;;;;;;71.23;45.77;;;6.30;99.90;;;;;;6177925;23;20021;-33
2022/03/22 08:03:03;;;;;;;65.30;43.97;;;6.40;99.90;;;;;;6204974;23;20025;-36
2022/03/22 08:05:31;;;;;;;65.70;42.13;;;6.50;99.90;;;;;;6205329;23;20020;-35
2022/03/22 08:07:56;;;;;;;68.80;44.60;;;6.50;99.90;;;;;;6184676;23;20044;-36
2022/03/22 08:10:22;;;;;;;61.00;42.03;;;6.60;99.90;;;;;;6204551;23;20126;-36
2022/03/22 08:12:49;;;;;;;66.40;43.63;;;6.70;99.90;;;;;;6203406;23;20032;-35
2022/03/22 08:15:15;;;;;;;66.63;43.37;;;6.80;99.90;;;;;;6202822;23;20019;-33
2022/03/22 08:17:41;;;;;;;69.53;43.40;;;6.90;99.90;;;;;;6185846;23;20360;-34
2022/03/22 08:20:09;;;;;;;70.37;45.27;;;6.90;99.90;;;;;;6204098;23;20388;-36
2022/03/22 08:22:59;;;;;;;67.67;44.77;;;7.00;99.90;;;;;;6202469;23;20021;-35
2022/03/22 08:25:37;;;;;;;66.70;43.43;;;7.20;99.90;;;;;;6159328;23;20314;-36
2022/03/22 08:28:05;;;;;;;64.07;43.10;;;7.30;99.90;;;;;;6185033;23;20493;-36
2022/03/22 08:30:32;;;;;;;62.87;40.70;;;7.40;99.90;;;;;;6204534;23;20452;-36
2022/03/22 08:33:00;;;;;;;61.23;41.57;;;7.50;99.90;;;;;;6204273;23;20042;-35
2022/03/22 08:35:27;;;;;;;65.03;42.43;;;7.70;99.90;;;;;;6204602;23;20472;-36
2022/03/22 08:37:54;;;;;;;63.23;41.87;;;7.80;99.90;;;;;;6186145;23;20359;-32
2022/03/22 08:40:21;;;;;;;62.00;41.27;;;8.00;99.90;;;;;;6204166;23;20032;-36
2022/03/22 08:42:49;;;;;;;58.83;39.97;;;8.10;99.90;;;;;;6204580;23;20024;-36
2022/03/22 08:45:25;;;;;;;58.37;39.47;;;8.30;99.90;;;;;;6206341;23;20016;-33
2022/03/22 08:47:52;;;;;;;58.07;40.33;;;8.40;99.90;;;;;;6187731;23;20024;-34
2022/03/22 08:50:20;;;;;;;56.13;38.30;;;8.60;99.90;;;;;;6204381;23;20344;-35
2022/03/22 08:52:47;;;;;;;59.77;38.17;;;8.80;99.90;;;;;;6205774;23;20021;-33
2022/03/22 08:55:17;;;;;;;63.07;40.90;;;8.90;99.90;;;;;;6204039;23;20020;-36
2022/03/22 08:57:46;;;;;;;57.23;38.03;;;9.10;99.90;;;;;;6187922;23;20024;-34
2022/03/22 09:00:13;;;;;;;55.13;39.67;;;9.20;99.90;;;;;;6206508;23;20517;-32
2022/03/22 09:02:41;;;;;;;54.43;37.83;;;9.40;99.90;;;;;;6204187;23;20248;-34
2022/03/22 09:07:56;;;;;;;56.87;38.17;;;9.60;99.90;;;;;;6182164;23;20372;-34
2022/03/22 09:10:22;;;;;;;59.63;38.70;;;9.70;99.90;;;;;;6175783;23;20034;-36
2022/03/22 09:12:48;;;;;;;56.57;38.13;;;9.80;99.90;;;;;;6202527;23;20020;-34
2022/03/22 09:15:15;;;;;;;56.93;37.23;;;9.90;99.90;;;;;;6200563;23;20114;-37
2022/03/22 09:17:42;;;;;;;56.70;37.97;;;10.00;99.90;;;;;;6183991;23;20028;-36
2022/03/22 09:20:12;;;;;;;55.00;37.30;;;10.10;99.90;;;;;;6202062;23;20013;-35
2022/03/22 09:22:38;;;;;;;57.10;38.10;;;10.20;99.90;;;;;;6202211;23;20091;-36
2022/03/22 09:25:04;;;;;;;56.27;36.93;;;10.30;99.90;;;;;;6202008;23;20276;-34
2022/03/22 09:27:30;;;;;;;51.93;38.00;;;10.40;99.90;;;;;;6179578;23;20206;-35
2022/03/22 09:29:57;;;;;;;47.97;35.73;;;10.50;99.90;;;;;;6200645;23;20016;-36
2022/03/22 09:32:23;;;;;;;54.67;36.50;;;10.70;99.90;;;;;;6199074;23;20033;-34
2022/03/22 09:34:49;;;;;;;52.73;36.20;;;10.80;99.90;;;;;;6201104;23;20029;-33
2022/03/22 09:37:16;;;;;;;48.67;35.63;;;10.90;99.90;;;;;;6184164;23;20558;-36
2022/03/22 09:39:43;;;;;;;49.57;35.23;;;11.10;99.90;;;;;;6203996;23;20016;-37
2022/03/22 09:42:09;;;;;;;50.20;36.07;;;11.20;99.90;;;;;;6202786;23;20492;-33
2022/03/22 09:44:35;;;;;;;54.03;36.30;;;11.30;99.90;;;;;;6203635;23;20018;-35
2022/03/22 09:47:03;;;;;;;47.53;34.30;;;11.50;99.90;;;;;;6183925;23;20023;-35
2022/03/22 09:49:30;;;;;;;51.07;34.83;;;11.60;99.90;;;;;;6202182;23;20039;-36
2022/03/22 09:51:57;;;;;;;49.50;34.90;;;11.70;99.90;;;;;;6199792;23;20106;-35
2022/03/22 09:54:24;;;;;;;50.20;34.00;;;11.80;99.90;;;;;;6203102;23;20614;-35
2022/03/22 09:56:52;;;;;;;48.30;33.80;;;11.90;99.90;;;;;;6156351;23;20452;-32
2022/03/22 09:59:18;;;;;;;50.83;34.20;;;12.10;99.90;;;;;;6198843;23;20052;-36
2022/03/22 10:01:45;;;;;;;46.28;32.15;;;12.20;99.90;;;;;;6186343;23;20238;-35
2022/03/22 10:04:13;;;;;;;51.53;33.67;;;12.30;99.90;;;;;;6204777;23;20044;-35
2022/03/22 10:07:02;;;;;;;44.97;32.38;;;12.40;99.90;;;;;;6185679;23;20035;-37
2022/03/22 10:09:33;;;;;;;46.72;32.58;;;12.50;99.90;;;;;;6204105;23;20020;-33
2022/03/22 10:11:59;;;;;;;47.40;31.73;;;12.60;99.90;;;;;;6203822;23;20027;-37
2022/03/22 10:14:39;;;;;;;44.97;31.77;;;12.70;99.90;;;;;;6193914;23;20396;-36
2022/03/22 10:17:10;;;;;;;47.65;31.75;;;12.80;99.90;;;;;;6185102;23;20025;-34
2022/03/22 10:19:42;;;;;;;46.40;31.63;;;12.90;99.90;;;;;;6205525;23;20348;-35
2022/03/22 10:22:11;;;;;;;42.20;30.40;;;13.10;99.90;;;;;;6182569;23;20020;-37
2022/03/22 10:24:52;;;;;;;49.38;32.17;;;13.20;99.90;;;;;;6204931;23;20398;-35
2022/03/22 10:27:31;;;;;;;42.78;29.58;;;13.40;99.90;;;;;;6183903;23;20021;-36
2022/03/22 10:29:59;;;;;;;50.00;30.83;;;13.50;99.90;;;;;;6202479;23;20028;-37
2022/03/22 10:32:35;;;;;;;48.88;30.17;;;13.60;99.90;;;;;;6203378;23;20031;-36
2022/03/22 10:35:11;;;;;;;43.35;29.23;;;13.70;99.90;;;;;;6204839;23;20159;-36
2022/03/22 10:37:37;;;;;;;46.75;28.92;;;13.80;99.90;;;;;;6185639;23;20062;-35
2022/03/22 10:40:29;;;;;;;42.95;28.42;;;13.90;99.90;;;;;;6203166;23;20025;-37
2022/03/22 10:43:09;;;;;;;45.67;29.23;;;14.00;99.90;;;;;;6201556;23;20031;-37
2022/03/22 10:46:01;;;;;;;40.42;28.42;;;14.10;99.90;;;;;;6204520;23;20024;-36
2022/03/22 10:48:32;;;;;;;;;;;14.20;99.90;;;;;;6179729;23;20028;-36
2022/03/22 10:50:59;;;;;;;45.17;30.50;;;14.30;99.90;;;;;;6202630;23;20343;-36
2022/03/22 10:53:26;;;;;;;46.42;30.75;;;14.40;99.90;;;;;;6188568;23;20024;-36
2022/03/22 10:55:52;;;;;;;46.30;30.17;;;14.50;99.90;;;;;;6204795;23;20352;-36
2022/03/22 10:58:25;;;;;;;44.05;29.08;;;14.60;99.90;;;;;;6184606;23;20021;-36
2022/03/22 11:00:51;;;;;;;45.17;29.48;;;14.70;99.90;;;;;;6204034;23;20020;-36
2022/03/22 11:03:18;;;;;;;43.13;28.73;;;14.80;99.90;;;;;;6195957;23;20392;-37
2022/03/22 11:05:51;;;;;;;45.22;29.38;;;15.00;99.90;;;;;;6193310;23;20051;-36
2022/03/22 11:08:19;;;;;;;41.88;29.83;;;15.10;99.90;;;;;;6185142;23;20092;-36
2022/03/22 11:10:45;;;;;;;44.25;29.55;;;15.20;99.90;;;;;;6204179;23;20408;-36
2022/03/22 11:13:11;;;;;;;40.47;29.02;;;15.30;99.90;;;;;;6185958;23;20055;-35
2022/03/22 11:15:40;;;;;;;42.78;29.10;;;15.40;99.90;;;;;;6204147;23;20020;-36
2022/03/22 11:18:07;;;;;;;48.10;28.80;;;15.50;99.90;;;;;;6185590;23;20024;-36
2022/03/22 11:20:33;;;;;;;39.90;28.45;;;15.60;99.90;;;;;;6204594;23;20475;-36
2022/03/22 11:23:00;;;;;;;46.30;28.45;;;15.70;99.90;;;;;;6203704;23;20091;-36
2022/03/22 11:25:36;;;;;;;42.10;28.63;;;15.70;99.90;;;;;;6202845;23;20486;-35
2022/03/22 11:28:10;;;;;;;41.88;28.08;;;15.90;99.90;;;;;;6184178;23;20031;-36
2022/03/22 11:30:38;;;;;;;42.83;25.73;;;16.00;99.90;;;;;;6203485;23;20490;-37
2022/03/22 11:36:12;;;;;;;38.70;26.00;;;16.20;99.90;;;;;;6203694;23;20365;-36
2022/03/22 11:38:48;;;;;;;43.25;27.88;;;16.40;99.90;;;;;;6197088;23;20325;-35
2022/03/22 11:44:18;;;;;;;38.10;24.67;;;16.60;99.90;;;;;;6203767;23;20063;-34
2022/03/22 11:46:45;;;;;;;;;;;16.70;99.90;;;;;;6186422;23;20020;-37
2022/03/22 11:49:17;;;;;;;36.13;23.23;;;16.80;99.90;;;;;;6201771;23;19912;-37
2022/03/22 11:51:48;;;;;;;44.78;25.48;;;17.00;99.90;;;;;;6204219;23;20071;-36
2022/03/22 11:54:13;;;;;;;40.38;24.27;;;17.10;99.90;;;;;;6203802;23;20326;-36
2022/03/22 11:56:47;;;;;;;37.53;24.40;;;17.20;99.90;;;;;;6187830;23;20086;-36
2022/03/22 11:59:17;;;;;;;40.05;24.85;;;17.30;99.90;;;;;;6203284;23;20100;-36
2022/03/22 12:01:57;;;;;;;37.28;24.80;;;17.40;99.90;;;;;;6202604;23;20067;-36
2022/03/22 12:04:34;;;;;;;42.53;24.63;;;17.50;99.90;;;;;;6200693;23;20023;-36
2022/03/22 12:07:01;;;;;;;35.08;24.48;;;17.60;99.90;;;;;;6183875;23;20021;-36
2022/03/22 12:09:28;;;;;;;40.00;24.38;;;17.70;99.90;;;;;;6203975;23;20032;-34
2022/03/22 12:11:56;;;;;;;40.15;25.42;;;17.80;99.90;;;;;;6202891;23;20024;-37
2022/03/22 12:14:26;;;;;;;41.95;25.05;;;17.90;99.90;;;;;;6203412;23;20204;-36
2022/03/22 12:16:53;;;;;;;36.50;24.37;;;18.00;99.90;;;;;;6184721;23;20016;-36
2022/03/22 12:19:30;;;;;;;37.88;24.08;;;18.10;99.90;;;;;;6201886;23;20731;-35
2022/03/22 12:21:58;;;;;;;36.67;23.83;;;18.10;99.90;;;;;;6191579;23;20151;-37
2022/03/22 12:24:30;;;;;;;36.63;23.95;;;18.20;99.90;;;;;;6198131;23;20059;-36
2022/03/22 12:26:58;;;;;;;39.08;24.73;;;18.20;99.90;;;;;;6184523;23;20031;-35
2022/03/22 12:29:25;;;;;;;35.95;24.98;;;18.30;99.90;;;;;;6203749;23;20060;-34
2022/03/22 12:31:53;;;;;;;36.78;25.25;;;18.30;99.90;;;;;;6202693;23;20110;-35
2022/03/22 12:34:22;;;;;;;35.72;25.63;;;18.40;99.90;;;;;;6201270;23;20621;-36
2022/03/22 12:36:47;;;;;;;37.28;25.00;;;18.40;99.90;;;;;;6182765;23;20575;-35
2022/03/22 12:39:13;;;;;;;34.88;25.58;;;18.50;99.90;;;;;;6204312;23;20099;-36
2022/03/22 12:41:39;;;;;;;41.88;25.65;;;18.60;99.90;;;;;;6202423;23;20031;-36
2022/03/22 12:44:06;;;;;;;37.42;25.85;;;18.50;99.90;;;;;;6203061;23;20052;-36
2022/03/22 12:46:32;;;;;;;37.85;25.92;;;18.70;99.90;;;;;;6185039;23;20035;-37
2022/03/22 12:48:58;;;;;;;37.63;25.65;;;18.70;99.90;;;;;;6200822;23;20031;-36
2022/03/22 12:51:25;;;;;;;37.85;25.80;;;18.80;99.90;;;;;;6203915;23;20024;-36
2022/03/22 12:53:53;;;;;;;35.92;24.92;;;18.80;99.90;;;;;;6201331;23;20119;-36
2022/03/22 12:56:21;;;;;;;36.22;24.50;;;18.90;99.90;;;;;;6189013;23;20352;-36
2022/03/22 12:58:49;;;;;;;39.15;24.98;;;18.90;99.90;;;;;;6198545;23;20028;-36
2022/03/22 13:01:16;;;;;;;39.67;25.65;;;19.00;99.90;;;;;;6203031;23;20020;-36
2022/03/22 13:03:44;;;;;;;39.80;25.38;;;19.00;99.90;;;;;;6203366;23;20595;-34
2022/03/22 13:06:11;;;;;;;38.05;25.23;;;19.10;99.90;;;;;;6194932;23;20024;-36
2022/03/22 13:11:28;;;;;;;37.78;24.48;;;19.10;99.90;;;;;;6204141;23;20028;-37
2022/03/22 13:16:39;;;;;;;38.05;24.13;;;19.30;99.90;;;;;;6185420;23;20070;-34
2022/03/22 13:19:09;;;;;;;33.08;22.13;;;19.30;99.90;;;;;;6201066;23;20029;-34
2022/03/22 13:21:39;;;;;;;35.30;21.40;;;19.30;99.90;;;;;;6192271;23;20020;-37